Terminal Aerodrome Forecast
Issued by NWS

Current Version | Previous Version | Text Only | Print | Product List | Glossary On
Versions: 1 2 3 4 5 6 7 8 9 10 11 12 13 14 15 16 17 18 19 20 21
278
FTUS43 KGRR 042008 AAC
TAFAZO
TAF AMD
KAZO 042008Z 0420/0518 12006KT 1/2SM SN OVC005
      TEMPO 0420/0424 1/4SM SN FG OVC004
     FM050200 18005KT 3/4SM -SN BR OVC005
     FM050300 20005KT 2SM -SN BR OVC008
     FM050900 26009KT 5SM BR OVC015
     FM051400 22006KT 2SM BR OVC025
     FM051600 21007KT 4SM BR OVC050=

USA.gov is the U.S. government's official web portal to all federal, state and local government web resources and services.